Time,TemperatureF,DewpointF,PressureIn,WindDirection,WindDirectionDegrees,WindSpeedMPH,WindSpeedGustMPH,Humidity,HourlyPrecipIn,Conditions,Clouds,dailyrainin,SoftwareType,DateUTC
2013-03-22 00:09:00,15.3,9.4,29.99,NNW,341,0.0,0.0,77,0.00,,---,0.00,VWS V14.01,2013-03-22 05:09:00,
2013-03-22 00:39:00,16.3,9.8,29.99,NNW,341,0.0,0.0,75,0.00,,---,0.00,VWS V14.01,2013-03-22 05:39:00,
2013-03-22 01:09:00,16.2,9.7,29.99,NNW,341,0.0,0.0,75,0.00,,---,0.00,VWS V14.01,2013-03-22 06:09:00,
2013-03-22 01:39:00,16.1,9.6,29.99,NNW,341,0.0,0.0,75,0.00,,---,0.00,VWS V14.01,2013-03-22 06:39:00,
2013-03-22 02:09:00,15.2,9.0,29.99,NNW,341,0.0,0.0,76,0.00,,---,0.00,VWS V14.01,2013-03-22 07:09:00,
2013-03-22 02:39:00,15.3,9.1,29.99,NNW,341,0.0,0.0,76,0.00,,---,0.00,VWS V14.01,2013-03-22 07:39:00,
2013-03-22 03:09:00,15.7,9.2,29.98,NNW,341,0.0,0.0,75,0.00,,---,0.00,VWS V14.01,2013-03-22 08:09:00,
2013-03-22 03:39:00,15.1,8.3,29.98,NNW,341,0.0,0.0,74,0.00,,---,0.00,VWS V14.01,2013-03-22 08:39:00,
2013-03-22 04:09:00,14.1,7.7,29.99,NNW,341,0.0,0.0,75,0.00,,---,0.00,VWS V14.01,2013-03-22 09:09:00,
2013-03-22 04:39:00,15.0,8.2,29.99,NW,306,0.0,1.0,74,0.00,,---,0.00,VWS V14.01,2013-03-22 09:39:00,
2013-03-22 05:09:00,14.3,7.8,29.99,NW,321,0.0,1.0,75,0.00,,---,0.00,VWS V14.01,2013-03-22 10:09:00,
2013-03-22 05:39:00,14.1,7.7,29.99,NNW,335,0.0,0.0,75,0.00,,---,0.00,VWS V14.01,2013-03-22 10:39:00,
2013-03-22 06:09:00,13.7,7.3,30.00,NNW,335,0.0,0.0,75,0.00,,---,0.00,VWS V14.01,2013-03-22 11:09:00,
2013-03-22 06:39:00,13.4,7.0,29.99,NNW,335,0.0,0.0,75,0.00,,---,0.00,VWS V14.01,2013-03-22 11:39:00,
2013-03-22 07:09:00,13.5,6.8,29.99,NNW,335,0.0,0.0,74,0.00,,---,0.00,VWS V14.01,2013-03-22 12:09:00,
2013-03-22 07:39:00,14.3,7.6,29.99,NNW,335,0.0,0.0,74,0.00,,---,0.00,VWS V14.01,2013-03-22 12:39:00,
2013-03-22 08:09:00,15.7,8.3,29.99,North,355,0.0,0.0,72,0.00,,---,0.00,VWS V14.01,2013-03-22 13:09:00,
2013-03-22 08:39:00,17.1,9.0,29.99,NNW,343,0.0,0.0,70,0.00,,---,0.00,VWS V14.01,2013-03-22 13:39:00,
2013-03-22 09:09:00,18.7,9.9,30.00,NNW,338,0.0,0.0,68,0.00,,---,0.00,VWS V14.01,2013-03-22 14:09:00,
2013-03-22 09:39:00,20.7,11.1,30.00,NNW,329,0.0,0.0,66,0.00,,---,0.00,VWS V14.01,2013-03-22 14:39:00,
2013-03-22 10:09:00,22.7,12.4,30.00,NNW,329,0.0,0.0,64,0.00,,---,0.00,VWS V14.01,2013-03-22 15:09:00,
2013-03-22 10:39:00,24.0,13.2,30.00,SW,230,0.0,0.0,63,0.00,,---,0.00,VWS V14.01,2013-03-22 15:39:00,
2013-03-22 11:09:00,25.7,13.8,30.00,West,280,0.0,0.0,60,0.00,,---,0.00,VWS V14.01,2013-03-22 16:09:00,
2013-03-22 11:39:00,27.2,15.2,30.00,NW,304,0.0,3.0,60,0.00,,---,0.00,VWS V14.01,2013-03-22 16:39:00,
2013-03-22 12:09:00,28.4,15.1,30.00,NW,308,0.0,4.0,57,0.00,,---,0.00,VWS V14.01,2013-03-22 17:09:00,
2013-03-22 12:39:00,30.7,15.2,29.99,North,355,3.0,6.0,52,0.00,,---,0.00,VWS V14.01,2013-03-22 17:39:00,
2013-03-22 13:09:00,30.4,15.8,29.99,North,9,1.0,6.0,54,0.00,,---,0.00,VWS V14.01,2013-03-22 18:09:00,
2013-03-22 13:39:00,31.8,15.8,29.98,North,9,0.0,7.0,51,0.00,,---,0.00,VWS V14.01,2013-03-22 18:39:00,
2013-03-22 14:09:00,31.1,14.6,29.97,NNW,329,1.0,9.0,50,0.00,,---,0.00,VWS V14.01,2013-03-22 19:09:00,
2013-03-22 14:39:00,32.7,16.1,29.97,NNW,342,0.0,5.0,50,0.00,,---,0.00,VWS V14.01,2013-03-22 19:39:00,
2013-03-22 15:09:00,32.4,16.3,29.96,WNW,298,1.0,8.0,51,0.00,,---,0.00,VWS V14.01,2013-03-22 20:09:00,
2013-03-22 15:39:00,32.8,16.7,29.96,NW,304,1.0,8.0,51,0.00,,---,0.00,VWS V14.01,2013-03-22 20:39:00,
2013-03-22 16:09:00,33.1,15.1,29.96,NNW,340,0.0,6.0,47,0.00,,---,0.00,VWS V14.01,2013-03-22 21:09:00,
2013-03-22 16:39:00,33.7,13.1,29.96,NNW,327,1.0,6.0,42,0.00,,---,0.00,VWS V14.01,2013-03-22 21:39:00,
2013-03-22 17:09:00,33.3,13.2,29.97,NNW,327,0.0,6.0,43,0.00,,---,0.00,VWS V14.01,2013-03-22 22:09:00,
2013-03-22 17:39:00,33.1,12.5,29.98,NNW,339,5.0,5.0,42,0.00,,---,0.00,VWS V14.01,2013-03-22 22:39:00,
2013-03-22 18:09:00,32.9,12.3,29.99,NNW,331,2.0,5.0,42,0.00,,---,0.00,VWS V14.01,2013-03-22 23:09:00,
2013-03-22 18:39:00,31.9,12.5,29.99,NNW,340,0.0,5.0,44,0.00,,---,0.00,VWS V14.01,2013-03-22 23:39:00,
2013-03-22 19:09:00,29.7,17.5,30.00,SE,125,0.0,2.0,60,0.00,,---,0.00,VWS V14.01,2013-03-23 00:09:00,
2013-03-22 19:39:00,27.9,18.0,30.00,ESE,123,0.0,3.0,66,0.00,,---,0.00,VWS V14.01,2013-03-23 00:39:00,
2013-03-22 20:09:00,26.5,17.7,30.01,ESE,123,0.0,0.0,69,0.00,,---,0.00,VWS V14.01,2013-03-23 01:09:00,
2013-03-22 20:39:00,25.4,17.6,30.01,ESE,123,0.0,0.0,72,0.00,,---,0.00,VWS V14.01,2013-03-23 01:39:00,
2013-03-22 21:09:00,24.0,16.6,30.01,ESE,123,0.0,0.0,73,0.00,,---,0.00,VWS V14.01,2013-03-23 02:09:00,
2013-03-22 21:39:00,22.4,16.3,30.02,ESE,123,0.0,0.0,77,0.00,,---,0.00,VWS V14.01,2013-03-23 02:39:00,
2013-03-22 22:09:00,21.2,15.7,30.03,ESE,123,0.0,0.0,79,0.00,,---,0.00,VWS V14.01,2013-03-23 03:09:00,
2013-03-22 22:39:00,20.2,15.6,30.03,ESE,123,0.0,0.0,82,0.00,,---,0.00,VWS V14.01,2013-03-23 03:39:00,
2013-03-22 23:09:00,20.3,15.7,30.03,ESE,123,0.0,0.0,82,0.00,,---,0.00,VWS V14.01,2013-03-23 04:09:00,
2013-03-22 23:39:00,18.8,14.5,30.02,ESE,123,0.0,0.0,83,0.00,,---,0.00,VWS V14.01,2013-03-23 04:39:00,